Time;durP1;ratioP1;P1;durP2;ratioP2;P2;SDS_P1;SDS_P2;PMS_P1;PMS_P2;Temp;Humidity;BMP_temperature;BMP_pressure;BME280_temperature;BME280_humidity;BME280_pressure;Samples;Min_cycle;Max_cycle;Signal;HPM_P1;HPM_P2
2022/11/04 00:01:53;;;;;;;6.78;4.32;;;10.50;99.90;;;;;;5015695;28;20041;-74
2022/11/04 00:04:21;;;;;;;6.38;4.10;;;10.50;99.90;;;;;;5021370;28;20042;-74
2022/11/04 00:06:48;;;;;;;8.50;3.97;;;10.50;99.90;;;;;;5003235;28;20495;-73
2022/11/04 00:09:26;;;;;;;7.28;4.18;;;10.50;99.90;;;;;;5014243;28;20038;-73
2022/11/04 00:14:39;;;;;;;7.70;3.30;;;10.40;99.90;;;;;;4997388;28;20385;-75
2022/11/04 00:17:18;;;;;;;8.10;3.80;;;10.40;99.90;;;;;;4985846;28;20049;-75
2022/11/04 00:33:51;;;;;;;6.63;4.05;;;10.30;99.90;;;;;;5011477;28;20049;-75
2022/11/04 00:36:18;;;;;;;7.80;4.35;;;10.40;99.90;;;;;;5017222;28;20033;-73
2022/11/04 00:38:44;;;;;;;9.95;4.57;;;10.40;99.90;;;;;;5015441;28;20041;-74
2022/11/04 00:41:29;;;;;;;5.72;4.07;;;10.40;99.90;;;;;;5027264;28;20033;-74
2022/11/04 00:44:00;;;;;;;9.57;4.43;;;10.40;99.90;;;;;;4990318;28;20068;-75
2022/11/04 00:46:28;;;;;;;5.00;4.05;;;10.40;99.90;;;;;;5026668;28;20029;-75
2022/11/04 00:48:55;;;;;;;5.03;3.35;;;10.40;99.90;;;;;;5015552;28;20030;-75
2022/11/04 00:51:22;;;;;;;5.95;3.58;;;10.30;99.90;;;;;;4987031;28;20048;-76
2022/11/04 00:53:49;;;;;;;4.82;3.60;;;10.30;99.90;;;;;;5015443;28;20045;-75
2022/11/04 00:56:15;;;;;;;6.47;3.88;;;10.30;99.90;;;;;;5013807;28;20037;-75
2022/11/04 00:58:42;;;;;;;5.70;3.90;;;10.30;99.90;;;;;;5004287;28;20364;-75
2022/11/04 01:01:10;;;;;;;5.65;3.15;;;10.30;99.90;;;;;;5012593;28;20030;-75
2022/11/04 01:03:36;;;;;;;5.05;3.35;;;10.30;99.90;;;;;;4996108;28;20045;-74
2022/11/04 01:06:03;;;;;;;4.50;3.28;;;10.30;99.90;;;;;;5012677;28;20045;-75
2022/11/04 01:08:30;;;;;;;5.97;2.92;;;10.30;99.90;;;;;;5013471;28;20045;-75
2022/11/04 01:10:59;;;;;;;4.80;3.53;;;10.30;99.90;;;;;;5013612;28;20037;-75
2022/11/04 01:13:25;;;;;;;5.53;2.67;;;10.30;99.90;;;;;;5013182;28;20049;-75
2022/11/04 01:15:51;;;;;;;4.00;1.90;;;10.30;99.90;;;;;;5012098;28;20025;-75
2022/11/04 01:18:17;;;;;;;4.05;1.83;;;10.30;99.90;;;;;;5029360;28;20029;-75
2022/11/04 01:20:44;;;;;;;4.53;2.03;;;10.30;99.90;;;;;;5022971;28;20037;-75
2022/11/04 01:23:10;;;;;;;3.20;1.63;;;10.30;99.90;;;;;;5012728;28;20042;-75
2022/11/04 01:25:40;;;;;;;5.78;1.65;;;10.30;99.90;;;;;;5021350;28;20029;-75
2022/11/04 01:28:06;;;;;;;3.08;1.60;;;10.30;99.90;;;;;;5031278;28;20042;-76
2022/11/04 01:30:32;;;;;;;4.20;2.17;;;10.30;99.90;;;;;;5017107;28;20057;-76
2022/11/04 01:32:59;;;;;;;2.53;1.65;;;10.30;99.90;;;;;;5015014;28;20034;-75
2022/11/04 01:35:25;;;;;;;2.45;1.45;;;10.30;99.90;;;;;;5023455;28;20486;-76
2022/11/04 01:37:51;;;;;;;2.30;1.50;;;10.40;99.90;;;;;;4994270;28;20045;-76
2022/11/04 01:40:18;;;;;;;4.60;1.40;;;10.40;99.90;;;;;;5012427;28;20048;-75
2022/11/04 01:42:44;;;;;;;7.95;1.70;;;10.40;99.90;;;;;;5020594;28;20057;-76
2022/11/04 01:45:14;;;;;;;2.28;1.13;;;10.50;99.90;;;;;;5031418;28;20040;-75
2022/11/04 01:47:47;;;;;;;2.30;1.17;;;10.50;99.90;;;;;;5030412;28;20034;-75
2022/11/04 01:50:20;;;;;;;5.85;1.48;;;10.50;99.90;;;;;;5017362;28;20038;-75
2022/11/04 01:52:59;;;;;;;1.65;0.90;;;10.50;99.90;;;;;;4995508;28;20375;-75
2022/11/04 01:55:27;;;;;;;2.08;1.23;;;10.50;99.90;;;;;;5027905;28;20034;-76
2022/11/04 01:57:59;;;;;;;1.67;1.05;;;10.40;99.90;;;;;;5031452;28;20025;-74
2022/11/04 02:00:26;;;;;;;2.83;1.33;;;10.60;99.90;;;;;;5031301;28;20052;-75
2022/11/04 02:03:23;;;;;;;3.70;1.30;;;10.60;99.90;;;;;;5031465;28;20037;-75
2022/11/04 02:05:50;;;;;;;3.97;1.45;;;10.50;99.90;;;;;;5017276;28;20044;-75
2022/11/04 02:08:17;;;;;;;2.45;1.58;;;10.50;99.90;;;;;;5031077;28;20041;-75
2022/11/04 02:10:52;;;;;;;2.08;0.82;;;10.40;99.90;;;;;;5031966;28;20029;-75
2022/11/04 02:13:19;;;;;;;2.05;1.30;;;10.40;99.90;;;;;;5021759;28;20045;-75
2022/11/04 02:16:10;;;;;;;2.95;1.55;;;10.30;99.90;;;;;;5013899;28;20034;-75
2022/11/04 02:18:36;;;;;;;;;;;10.30;99.90;;;;;;5033184;28;20513;-75
2022/11/04 02:21:35;;;;;;;4.93;1.42;;;10.30;99.90;;;;;;5025435;28;20011;-76
2022/11/04 02:24:24;;;;;;;2.75;1.23;;;10.20;99.90;;;;;;5019359;28;20038;-75
2022/11/04 02:27:32;;;;;;;3.92;1.58;;;10.20;99.90;;;;;;5011642;28;20034;-75
2022/11/04 02:30:11;;;;;;;5.65;1.60;;;10.20;99.90;;;;;;5003008;28;20498;-75
2022/11/04 02:33:00;;;;;;;2.03;1.23;;;10.20;99.90;;;;;;5013554;28;20049;-75
2022/11/04 02:36:00;;;;;;;3.97;1.20;;;10.20;99.90;;;;;;5024660;28;20040;-76
2022/11/04 02:38:39;;;;;;;3.17;1.40;;;10.20;99.90;;;;;;5013715;28;20495;-75
2022/11/04 02:41:16;;;;;;;3.38;0.80;;;10.40;99.90;;;;;;5002696;28;20148;-75
2022/11/04 02:44:16;;;;;;;2.50;0.63;;;10.40;99.90;;;;;;5013085;28;20034;-75
2022/11/04 02:46:49;;;;;;;2.47;1.08;;;10.40;99.90;;;;;;4991547;28;20049;-75
2022/11/04 02:49:33;;;;;;;4.60;1.13;;;10.40;99.90;;;;;;5012542;28;20030;-75
2022/11/04 02:52:26;;;;;;;3.03;0.90;;;10.50;99.90;;;;;;5006334;28;20038;-76
2022/11/04 02:55:01;;;;;;;2.45;0.80;;;10.50;99.90;;;;;;5008156;28;20060;-75
2022/11/04 02:57:30;;;;;;;4.43;1.10;;;10.70;99.90;;;;;;4993054;28;20038;-75
2022/11/04 03:00:06;;;;;;;4.18;1.08;;;10.50;99.90;;;;;;5029472;28;20025;-75
2022/11/04 03:02:44;;;;;;;3.50;1.10;;;10.50;99.90;;;;;;5030372;28;20034;-76
2022/11/04 03:05:15;;;;;;;3.45;1.13;;;10.40;99.90;;;;;;5031026;28;20041;-75
2022/11/04 03:07:44;;;;;;;4.07;1.00;;;10.40;99.90;;;;;;5030038;28;20438;-75
2022/11/04 03:10:35;;;;;;;4.75;1.20;;;10.40;99.90;;;;;;5025351;28;20502;-75
2022/11/04 03:13:14;;;;;;;11.15;2.15;;;10.40;99.90;;;;;;4990898;28;20057;-74
2022/11/04 03:15:48;;;;;;;3.25;0.98;;;10.40;99.90;;;;;;5010547;28;20034;-75
2022/11/04 03:18:36;;;;;;;5.43;1.05;;;10.30;99.90;;;;;;5011520;28;20078;-75
2022/11/04 03:21:05;;;;;;;3.40;0.98;;;10.20;99.90;;;;;;5025258;28;20041;-75
2022/11/04 03:23:32;;;;;;;3.33;0.90;;;10.20;99.90;;;;;;5012094;28;20245;-75
2022/11/04 03:26:11;;;;;;;6.30;1.45;;;10.20;99.90;;;;;;5033046;28;20492;-75
2022/11/04 03:28:48;;;;;;;7.38;1.00;;;10.20;99.90;;;;;;5034476;28;20037;-76
2022/11/04 03:31:24;;;;;;;2.47;0.90;;;10.20;99.90;;;;;;4984132;28;20048;-76
2022/11/04 03:33:54;;;;;;;4.78;0.90;;;10.20;99.90;;;;;;5002136;28;20037;-76
2022/11/04 03:36:23;;;;;;;7.53;1.02;;;10.10;99.90;;;;;;5008226;28;20037;-74
2022/11/04 03:38:51;;;;;;;5.35;0.68;;;10.10;99.90;;;;;;5021900;28;20467;-74
2022/11/04 03:41:40;;;;;;;6.93;1.02;;;10.00;99.90;;;;;;5014484;28;20030;-74
2022/11/04 03:44:06;;;;;;;5.80;1.15;;;9.80;99.90;;;;;;5021221;28;20068;-73
2022/11/04 03:46:33;;;;;;;3.50;1.10;;;9.70;99.90;;;;;;5013127;28;20037;-74
2022/11/04 03:49:01;;;;;;;5.45;1.08;;;9.70;99.90;;;;;;4997726;28;20040;-74
2022/11/04 03:51:27;;;;;;;3.50;0.90;;;9.70;99.90;;;;;;5018948;28;20029;-74
2022/11/04 03:53:54;;;;;;;4.57;1.40;;;9.70;99.90;;;;;;5020182;28;20061;-73
2022/11/04 03:56:42;;;;;;;3.05;0.70;;;9.70;99.90;;;;;;5031097;28;20490;-74
2022/11/04 03:59:20;;;;;;;6.60;1.10;;;9.60;99.90;;;;;;5021457;28;20038;-73
2022/11/04 04:02:17;;;;;;;5.15;0.98;;;9.60;99.90;;;;;;5024043;28;20048;-73
2022/11/04 04:05:07;;;;;;;4.80;1.45;;;9.50;99.90;;;;;;5033637;28;20037;-73
2022/11/04 04:08:00;;;;;;;3.47;1.13;;;9.50;99.90;;;;;;5031301;28;20421;-74
2022/11/04 04:10:40;;;;;;;2.83;0.80;;;9.50;99.90;;;;;;5028787;28;20038;-73
2022/11/04 04:13:25;;;;;;;3.80;0.90;;;9.50;99.90;;;;;;4996906;28;20042;-73
2022/11/04 04:16:03;;;;;;;5.57;0.98;;;9.50;99.90;;;;;;5021909;28;20367;-74
2022/11/04 04:18:53;;;;;;;5.85;1.33;;;9.40;99.90;;;;;;5023859;28;20064;-73
2022/11/04 04:21:25;;;;;;;8.18;1.10;;;9.40;99.90;;;;;;5019607;28;20060;-73
2022/11/04 04:29:28;;;;;;;3.88;1.15;;;9.20;99.90;;;;;;5016785;28;20056;-74
2022/11/04 04:31:56;;;;;;;8.32;1.65;;;9.10;99.90;;;;;;5032774;28;20037;-74
2022/11/04 04:34:26;;;;;;;18.23;1.13;;;9.00;99.90;;;;;;5029344;28;20034;-74
2022/11/04 04:37:04;;;;;;;4.93;0.98;;;9.00;99.90;;;;;;5011118;28;20037;-73
2022/11/04 04:45:26;;;;;;;1.98;0.80;;;8.80;99.90;;;;;;5029912;28;20044;-75
2022/11/04 04:47:52;;;;;;;3.60;0.88;;;8.80;99.90;;;;;;5024908;28;20045;-74
2022/11/04 04:50:20;;;;;;;4.95;0.95;;;8.70;99.90;;;;;;5030862;28;20390;-80
2022/11/04 04:52:52;;;;;;;3.50;1.00;;;8.70;99.90;;;;;;5020268;28;20045;-73
2022/11/04 04:55:20;;;;;;;2.47;0.73;;;8.70;99.90;;;;;;5012885;28;20041;-73
2022/11/04 04:57:46;;;;;;;6.40;1.20;;;8.70;99.90;;;;;;5009117;28;20069;-73
2022/11/04 05:00:16;;;;;;;6.95;1.35;;;8.70;99.90;;;;;;5006419;28;20034;-73
2022/11/04 05:02:42;;;;;;;3.88;0.85;;;8.60;99.90;;;;;;5009174;28;20029;-72
2022/11/04 05:05:10;;;;;;;5.05;0.77;;;8.50;99.90;;;;;;5018657;28;20410;-73
2022/11/04 05:07:36;;;;;;;5.25;0.75;;;8.50;99.90;;;;;;5031385;28;20040;-73
2022/11/04 05:10:02;;;;;;;5.53;1.30;;;8.50;99.90;;;;;;5017210;28;20060;-73
2022/11/04 05:13:24;;;;;;;4.13;1.30;;;8.40;99.90;;;;;;5010944;28;20022;-75
2022/11/04 05:15:15;;;;;;;4.28;1.40;;;8.40;99.90;;;;;;5012445;28;20151;-75
2022/11/04 05:17:41;;;;;;;3.30;1.05;;;8.30;99.90;;;;;;5014864;28;20030;-76
2022/11/04 05:20:08;;;;;;;3.40;1.08;;;8.30;99.90;;;;;;5017550;28;20402;-78
2022/11/04 05:22:35;;;;;;;5.07;1.10;;;8.30;99.90;;;;;;5023280;28;20025;-76
2022/11/04 05:25:01;;;;;;;3.38;1.23;;;8.30;99.90;;;;;;5029453;28;20037;-76
2022/11/04 05:27:27;;;;;;;4.03;1.13;;;8.30;99.90;;;;;;4995829;28;20045;-75
2022/11/04 05:29:53;;;;;;;4.72;1.33;;;8.30;99.90;;;;;;4976823;28;1119690;-74
2022/11/04 05:32:19;;;;;;;4.50;1.92;;;8.40;99.90;;;;;;5031833;28;20037;-79
2022/11/04 05:34:47;;;;;;;3.75;1.52;;;8.50;99.90;;;;;;5025570;28;20030;-77
2022/11/04 05:37:13;;;;;;;6.32;1.42;;;8.50;99.90;;;;;;5010756;28;20044;-78
2022/11/04 05:39:39;;;;;;;5.07;1.63;;;8.60;99.90;;;;;;5000404;28;20034;-76
2022/11/04 05:42:05;;;;;;;5.18;1.13;;;8.60;99.90;;;;;;5011808;28;20037;-77
2022/11/04 05:44:31;;;;;;;8.93;1.33;;;8.70;99.90;;;;;;5028033;28;20037;-77
2022/11/04 05:46:57;;;;;;;6.45;1.40;;;8.80;99.90;;;;;;5010759;28;20040;-77
2022/11/04 05:49:23;;;;;;;3.05;1.08;;;8.90;99.90;;;;;;5020926;28;20041;-77
2022/11/04 05:51:50;;;;;;;4.30;1.20;;;9.00;99.90;;;;;;5032079;28;20029;-77
2022/11/04 05:54:16;;;;;;;5.38;1.50;;;9.00;99.90;;;;;;5014257;28;20057;-77
2022/11/04 05:56:42;;;;;;;3.13;1.02;;;9.00;99.90;;;;;;5013903;28;20026;-77
2022/11/04 05:59:09;;;;;;;3.80;1.20;;;8.90;99.90;;;;;;4996927;28;20050;-77
2022/11/04 06:01:38;;;;;;;3.67;1.23;;;8.90;99.90;;;;;;4993505;28;20045;-77
2022/11/04 06:04:06;;;;;;;2.65;1.30;;;8.90;99.90;;;;;;5024330;28;20052;-77
2022/11/04 06:06:34;;;;;;;4.55;2.05;;;8.80;99.90;;;;;;5027147;28;20036;-76
2022/11/04 06:09:01;;;;;;;4.60;1.50;;;8.80;99.90;;;;;;5013218;28;20037;-77
2022/11/04 06:11:29;;;;;;;5.10;1.52;;;8.80;99.90;;;;;;5011380;28;20057;-77
2022/11/04 06:13:56;;;;;;;6.35;2.05;;;8.80;99.90;;;;;;5013135;28;20037;-78
2022/11/04 06:16:23;;;;;;;3.22;1.38;;;8.80;99.90;;;;;;5012944;28;20025;-77
2022/11/04 06:18:49;;;;;;;3.83;1.25;;;8.80;99.90;;;;;;5013111;28;20030;-77
2022/11/04 06:21:17;;;;;;;7.72;1.60;;;8.80;99.90;;;;;;5012725;28;20037;-76
2022/11/04 06:23:43;;;;;;;7.53;1.58;;;8.80;99.90;;;;;;5005294;28;20506;-78
2022/11/04 06:26:12;;;;;;;7.53;1.67;;;8.80;99.90;;;;;;5031362;28;20474;-78
2022/11/04 06:28:38;;;;;;;5.80;1.83;;;8.80;99.90;;;;;;4995481;28;20049;-77
2022/11/04 06:31:07;;;;;;;5.15;1.80;;;8.80;99.90;;;;;;4994030;28;20053;-76
2022/11/04 06:33:33;;;;;;;4.88;1.33;;;8.80;99.90;;;;;;4994831;28;20041;-77
2022/11/04 06:36:02;;;;;;;4.07;1.75;;;8.80;99.90;;;;;;5012874;28;20030;-77
2022/11/04 06:38:30;;;;;;;4.13;1.67;;;8.80;99.90;;;;;;5021980;28;20052;-77
2022/11/04 06:40:57;;;;;;;5.88;3.67;;;8.70;99.90;;;;;;5028959;28;20033;-77
2022/11/04 06:43:23;;;;;;;3.58;1.45;;;8.70;99.90;;;;;;5018668;28;20359;-77
2022/11/04 06:46:33;;;;;;;3.83;1.30;;;8.70;99.90;;;;;;5000277;28;20041;-78
2022/11/04 06:48:59;;;;;;;6.55;1.23;;;8.70;99.90;;;;;;4995493;28;20064;-78
2022/11/04 06:51:25;;;;;;;3.95;1.65;;;8.70;99.90;;;;;;5011637;28;20041;-79
2022/11/04 06:53:51;;;;;;;3.83;1.60;;;8.70;99.90;;;;;;5032943;28;20033;-77
2022/11/04 06:56:18;;;;;;;4.57;1.38;;;8.80;99.90;;;;;;4996078;28;20037;-76
2022/11/04 06:58:51;;;;;;;5.25;1.70;;;8.80;99.90;;;;;;5013561;28;20045;-78
2022/11/04 07:01:19;;;;;;;7.90;1.63;;;8.80;99.90;;;;;;4998907;28;20041;-78
2022/11/04 07:03:50;;;;;;;3.38;1.77;;;8.70;99.90;;;;;;5004795;28;20140;-78
2022/11/04 07:06:18;;;;;;;4.57;1.40;;;8.80;99.90;;;;;;4992401;28;20053;-79
2022/11/04 07:08:45;;;;;;;5.00;1.55;;;8.80;99.90;;;;;;5015502;28;20029;-78
2022/11/04 07:11:12;;;;;;;4.40;1.20;;;8.90;99.90;;;;;;5020591;28;20025;-78
2022/11/04 07:13:39;;;;;;;3.50;1.10;;;8.80;99.90;;;;;;4991427;28;20042;-79
2022/11/04 07:16:09;;;;;;;5.85;1.40;;;8.90;99.90;;;;;;5015750;28;20034;-78
2022/11/04 07:18:35;;;;;;;7.80;2.20;;;8.90;99.90;;;;;;5034302;28;20025;-78
2022/11/04 07:21:03;;;;;;;3.38;1.50;;;9.00;99.90;;;;;;5021349;28;20026;-78
2022/11/04 07:23:29;;;;;;;3.15;1.02;;;9.10;99.90;;;;;;5015230;28;20029;-78
2022/11/04 07:25:59;;;;;;;5.68;1.05;;;9.10;99.90;;;;;;5027472;28;20037;-78
2022/11/04 07:28:25;;;;;;;4.18;1.50;;;9.20;99.90;;;;;;4998359;28;20034;-79
2022/11/04 07:30:55;;;;;;;3.10;1.15;;;9.20;99.90;;;;;;5014103;28;20046;-78
2022/11/04 07:33:21;;;;;;;2.90;2.05;;;9.20;99.90;;;;;;4997737;28;20037;-78
2022/11/04 07:35:48;;;;;;;6.60;2.40;;;9.30;99.90;;;;;;5015544;28;20042;-79
2022/11/04 07:38:14;;;;;;;6.22;2.92;;;9.30;99.90;;;;;;4981876;28;20061;-79
2022/11/04 07:40:40;;;;;;;5.55;2.20;;;9.30;99.90;;;;;;4983795;28;20041;-78
2022/11/04 07:43:06;;;;;;;5.28;1.75;;;9.30;99.90;;;;;;5024247;28;20398;-78
2022/11/04 07:45:36;;;;;;;3.40;1.15;;;9.40;99.90;;;;;;5013818;28;20053;-78
2022/11/04 07:48:03;;;;;;;6.80;2.13;;;9.40;99.90;;;;;;5034236;28;20036;-78
2022/11/04 07:50:29;;;;;;;2.10;1.00;;;9.50;99.90;;;;;;5032617;28;20033;-79
2022/11/04 07:52:55;;;;;;;3.05;1.77;;;9.40;99.90;;;;;;5024654;28;20030;-78
2022/11/04 07:55:21;;;;;;;4.93;1.60;;;9.50;99.90;;;;;;5015056;28;20406;-78
2022/11/04 07:57:48;;;;;;;4.75;1.77;;;9.50;99.90;;;;;;5023960;28;20056;-78
2022/11/04 08:00:15;;;;;;;4.93;2.15;;;9.60;99.90;;;;;;5009426;28;20046;-78
2022/11/04 08:02:45;;;;;;;3.33;1.95;;;9.50;99.90;;;;;;5012726;28;20041;-78
2022/11/04 08:05:15;;;;;;;5.53;2.08;;;9.60;99.90;;;;;;5016929;28;20395;-78
2022/11/04 08:07:42;;;;;;;4.45;3.65;;;9.60;99.90;;;;;;4997511;28;20042;-78
2022/11/04 08:10:09;;;;;;;3.88;1.80;;;9.60;99.90;;;;;;5014052;28;20037;-79
2022/11/04 08:12:36;;;;;;;8.32;1.45;;;9.70;99.90;;;;;;5020583;28;20030;-78
2022/11/04 08:15:04;;;;;;;4.30;1.45;;;9.70;99.90;;;;;;4999351;28;20046;-78
2022/11/04 08:17:30;;;;;;;5.72;1.20;;;9.80;99.90;;;;;;5001662;28;20045;-78
2022/11/04 08:19:56;;;;;;;3.75;1.27;;;9.80;99.90;;;;;;5028923;28;20034;-79
2022/11/04 08:22:23;;;;;;;7.85;1.83;;;9.90;99.90;;;;;;5001761;28;20051;-78
2022/11/04 08:24:50;;;;;;;4.88;2.05;;;9.90;99.90;;;;;;5014881;28;20105;-78
2022/11/04 08:27:16;;;;;;;5.18;2.10;;;9.90;99.90;;;;;;4997604;28;20329;-78
2022/11/04 08:29:42;;;;;;;2.45;1.38;;;10.00;99.90;;;;;;5009697;28;20501;-77
2022/11/04 08:32:08;;;;;;;3.95;1.42;;;10.10;99.90;;;;;;5021147;28;20108;-75
2022/11/04 08:34:34;;;;;;;8.98;1.05;;;10.10;99.90;;;;;;5014640;28;20034;-76
2022/11/04 08:37:01;;;;;;;4.75;1.42;;;10.20;99.90;;;;;;4997735;28;20041;-75
2022/11/04 08:39:27;;;;;;;3.28;1.80;;;10.30;99.90;;;;;;5010022;28;20212;-77
2022/11/04 08:41:53;;;;;;;2.00;0.98;;;10.30;99.90;;;;;;5013365;28;20029;-76
2022/11/04 08:44:21;;;;;;;6.72;1.15;;;10.40;99.90;;;;;;5020832;28;20049;-76
2022/11/04 08:46:47;;;;;;;4.68;1.77;;;10.60;99.90;;;;;;5017986;28;20467;-76
2022/11/04 08:49:13;;;;;;;3.33;0.90;;;10.70;99.90;;;;;;5015330;28;20048;-76
2022/11/04 08:51:44;;;;;;;2.60;1.40;;;10.80;99.90;;;;;;5027679;28;20029;-76
2022/11/04 08:54:10;;;;;;;3.90;0.90;;;10.80;99.90;;;;;;5031673;28;20041;-76
2022/11/04 08:56:38;;;;;;;3.53;1.27;;;10.80;99.90;;;;;;5032417;28;20126;-76
2022/11/04 08:59:04;;;;;;;2.15;0.70;;;10.90;99.90;;;;;;4999390;28;20030;-76
2022/11/04 09:01:34;;;;;;;6.97;1.17;;;10.90;99.90;;;;;;5006572;28;20101;-79
2022/11/04 09:04:00;;;;;;;2.58;0.82;;;10.90;99.90;;;;;;5000714;28;20049;-81
2022/11/04 09:06:30;;;;;;;5.75;1.10;;;11.00;99.90;;;;;;5021807;28;20034;-77
2022/11/04 09:09:02;;;;;;;2.63;0.88;;;11.10;99.90;;;;;;5032682;28;20030;-76
2022/11/04 09:11:32;;;;;;;1.52;0.63;;;11.10;99.90;;;;;;4999983;28;20037;-77
2022/11/04 09:14:00;;;;;;;5.95;1.13;;;11.20;99.90;;;;;;5012867;28;20037;-77
2022/11/04 09:16:28;;;;;;;1.73;0.70;;;11.40;99.90;;;;;;5037512;28;20034;-78
2022/11/04 09:18:56;;;;;;;2.90;0.85;;;11.60;99.90;;;;;;5017193;28;20042;-76
2022/11/04 09:21:24;;;;;;;5.50;1.25;;;11.60;99.90;;;;;;5002102;28;20048;-76
2022/11/04 09:23:50;;;;;;;2.95;1.75;;;11.60;99.90;;;;;;5014393;28;20363;-80
2022/11/04 09:26:16;;;;;;;2.92;0.65;;;11.60;99.90;;;;;;5034120;28;20048;-76
2022/11/04 09:28:43;;;;;;;4.57;2.88;;;11.60;99.90;;;;;;5027458;28;20050;-77
2022/11/04 09:31:16;;;;;;;2.72;0.70;;;11.80;99.90;;;;;;5020036;28;20038;-76
2022/11/04 09:33:43;;;;;;;2.22;0.80;;;11.70;99.90;;;;;;5020479;28;20361;-77
2022/11/04 09:36:10;;;;;;;2.78;1.30;;;11.80;99.90;;;;;;5047357;28;20036;-78
2022/11/04 09:38:38;;;;;;;2.22;0.60;;;11.90;99.90;;;;;;5034207;28;20040;-77
2022/11/04 09:41:43;;;;;;;6.63;1.05;;;12.00;99.90;;;;;;5015887;28;20030;-77
2022/11/04 09:44:21;;;;;;;2.38;0.60;;;12.00;99.90;;;;;;5016905;28;20052;-78
2022/11/04 09:46:49;;;;;;;3.25;0.95;;;12.10;99.90;;;;;;5009324;28;20049;-77
2022/11/04 09:49:16;;;;;;;2.35;0.73;;;12.10;99.90;;;;;;5020288;28;20041;-78
2022/11/04 09:51:45;;;;;;;2.97;0.50;;;12.00;99.90;;;;;;5003021;28;20033;-77
2022/11/04 09:54:22;;;;;;;3.75;1.60;;;12.00;99.90;;;;;;5013439;28;20471;-77
2022/11/04 09:56:51;;;;;;;2.42;0.88;;;12.20;99.90;;;;;;4986097;28;20054;-76
2022/11/04 09:59:30;;;;;;;2.72;0.73;;;12.00;99.90;;;;;;5027297;28;20053;-77
2022/11/04 10:02:35;;;;;;;1.58;0.73;;;11.80;99.90;;;;;;5005083;28;20375;-77
2022/11/04 10:05:15;;;;;;;1.98;0.77;;;11.80;99.90;;;;;;4976546;28;20054;-81
2022/11/04 10:07:54;;;;;;;2.42;0.90;;;11.80;99.90;;;;;;5024992;28;20418;-77
2022/11/04 10:10:28;;;;;;;5.68;0.75;;;11.90;99.90;;;;;;5013602;28;20467;-77
2022/11/04 10:12:55;;;;;;;2.60;1.10;;;11.80;99.90;;;;;;5029120;28;20052;-76
2022/11/04 10:15:28;;;;;;;3.67;0.93;;;11.80;99.90;;;;;;5030882;28;20030;-77
2022/11/04 10:18:35;;;;;;;1.80;0.65;;;11.80;99.90;;;;;;5030323;28;20038;-77
2022/11/04 10:21:24;;;;;;;2.75;0.80;;;11.80;99.90;;;;;;5014009;28;20038;-76
2022/11/04 10:24:09;;;;;;;2.67;0.70;;;11.90;99.90;;;;;;4996912;28;20034;-77
2022/11/04 10:27:04;;;;;;;2.03;0.60;;;12.00;99.90;;;;;;5029554;28;20403;-77
2022/11/04 10:29:47;;;;;;;1.30;0.60;;;12.20;99.90;;;;;;5031197;28;20049;-77
2022/11/04 10:32:19;;;;;;;2.17;1.08;;;12.40;99.90;;;;;;5031384;28;20052;-77
2022/11/04 10:34:57;;;;;;;5.85;0.90;;;12.40;99.90;;;;;;5030330;28;20044;-77
2022/11/04 10:37:25;;;;;;;3.80;1.05;;;12.40;99.90;;;;;;5006267;28;20376;-77
2022/11/04 10:40:04;;;;;;;3.08;1.52;;;12.40;99.90;;;;;;5019176;28;20034;-77
2022/11/04 10:42:38;;;;;;;2.90;0.73;;;12.20;99.90;;;;;;5027161;28;20045;-78
2022/11/04 10:45:12;;;;;;;2.75;0.70;;;12.00;99.90;;;;;;5022138;28;20050;-78
2022/11/04 10:47:38;;;;;;;4.35;0.85;;;12.10;99.90;;;;;;5001336;28;20398;-76
2022/11/04 10:50:36;;;;;;;1.90;0.57;;;12.00;99.90;;;;;;5012315;28;20033;-77
2022/11/04 10:53:37;;;;;;;5.72;0.93;;;12.20;99.90;;;;;;5008667;28;20030;-77
2022/11/04 10:56:16;;;;;;;;;;;12.20;99.90;;;;;;5022023;28;20057;-76
2022/11/04 10:58:45;;;;;;;4.00;1.20;;;12.40;99.90;;;;;;5013882;28;19984;-77
2022/11/04 11:01:30;;;;;;;4.53;0.80;;;12.50;99.90;;;;;;5031055;28;20042;-77
2022/11/04 11:03:58;;;;;;;4.03;0.90;;;12.50;99.80;;;;;;5006849;28;20045;-78
2022/11/04 11:06:35;;;;;;;2.75;0.93;;;12.40;99.50;;;;;;5023298;28;20038;-78
2022/11/04 11:09:24;;;;;;;4.40;0.93;;;12.20;99.90;;;;;;5030929;28;20039;-78
2022/11/04 11:11:52;;;;;;;4.03;1.00;;;12.20;99.90;;;;;;5026058;28;20038;-77
2022/11/04 11:14:29;;;;;;;3.58;1.40;;;12.20;99.90;;;;;;4999148;28;20041;-77
2022/11/04 11:16:56;;;;;;;3.03;0.80;;;12.40;99.90;;;;;;5010640;28;20030;-78
2022/11/04 11:19:24;;;;;;;3.20;1.60;;;12.60;99.90;;;;;;4994566;28;20030;-77
2022/11/04 11:21:56;;;;;;;3.88;0.60;;;12.70;99.40;;;;;;5016478;28;20485;-77
2022/11/04 11:24:24;;;;;;;4.47;1.10;;;12.90;99.50;;;;;;5031159;28;20399;-77
2022/11/04 11:26:56;;;;;;;2.88;1.00;;;13.20;95.00;;;;;;5011467;28;20037;-77
2022/11/04 11:29:29;;;;;;;6.65;1.35;;;13.00;93.60;;;;;;5030473;28;20056;-74
2022/11/04 11:31:58;;;;;;;5.03;0.90;;;12.90;95.00;;;;;;5012262;28;20072;-74
2022/11/04 11:34:31;;;;;;;4.47;1.00;;;13.00;94.60;;;;;;4992529;28;20105;-74
2022/11/04 11:37:02;;;;;;;3.88;0.70;;;12.80;93.40;;;;;;4988507;28;20501;-78
2022/11/04 11:39:33;;;;;;;3.03;1.17;;;12.90;98.10;;;;;;5030983;28;20034;-77
2022/11/04 11:42:06;;;;;;;;;;;13.10;97.30;;;;;;5031260;28;20455;-77
2022/11/04 11:44:37;;;;;;;7.05;1.13;;;13.00;96.90;;;;;;5030298;28;19909;-84
2022/11/04 11:47:21;;;;;;;3.35;1.10;;;13.10;95.40;;;;;;5020986;28;20045;-77
2022/11/04 11:50:17;;;;;;;2.25;0.60;;;13.10;94.90;;;;;;4994941;28;20383;-77
2022/11/04 11:52:44;;;;;;;4.50;1.05;;;13.10;95.60;;;;;;5033775;28;20037;-78
2022/11/04 11:55:31;;;;;;;3.42;1.10;;;13.20;96.20;;;;;;5034444;28;20037;-78
2022/11/04 11:57:57;;;;;;;3.40;1.30;;;13.40;93.50;;;;;;5007193;28;20053;-77
2022/11/04 12:00:31;;;;;;;5.53;1.55;;;13.40;91.20;;;;;;5017583;28;20030;-77
2022/11/04 12:03:16;;;;;;;8.52;1.02;;;13.30;93.50;;;;;;5033924;28;20034;-78
2022/11/04 12:06:14;;;;;;;5.85;1.15;;;13.30;95.30;;;;;;4984791;28;20054;-77
2022/11/04 12:09:17;;;;;;;6.57;3.25;;;13.30;95.80;;;;;;5011000;28;20041;-78
2022/11/04 12:11:54;;;;;;;2.28;1.02;;;13.40;96.50;;;;;;5021395;28;20030;-78
2022/11/04 12:14:35;;;;;;;3.97;1.17;;;13.30;91.70;;;;;;5034462;28;20036;-77
2022/11/04 12:17:10;;;;;;;2.30;0.73;;;13.30;93.10;;;;;;5018352;28;20034;-83
2022/11/04 12:20:02;;;;;;;5.30;0.85;;;13.40;95.00;;;;;;5033984;28;20033;-78
2022/11/04 12:22:34;;;;;;;3.88;0.80;;;13.50;93.30;;;;;;5033793;28;20498;-78
2022/11/04 12:25:15;;;;;;;5.55;1.98;;;13.60;92.70;;;;;;5015860;28;20048;-77
2022/11/04 12:28:08;;;;;;;3.55;1.80;;;13.40;91.00;;;;;;5012891;28;20038;-78
2022/11/04 12:30:48;;;;;;;3.95;0.75;;;13.20;93.20;;;;;;4957315;28;20057;-77
2022/11/04 12:33:32;;;;;;;4.65;0.90;;;13.10;96.50;;;;;;4996898;28;20053;-78
2022/11/04 12:36:13;;;;;;;3.58;0.68;;;12.90;99.90;;;;;;5023038;28;20521;-77
2022/11/04 12:39:16;;;;;;;7.75;1.00;;;12.60;99.90;;;;;;5032980;28;20033;-77
2022/11/04 12:42:07;;;;;;;6.18;1.80;;;12.20;99.90;;;;;;5032973;28;20398;-77
2022/11/04 12:44:34;;;;;;;;;;;12.10;99.90;;;;;;5015777;28;20033;-74
2022/11/04 12:47:26;;;;;;;4.15;0.85;;;12.20;99.90;;;;;;4999089;28;19918;-74
2022/11/04 12:50:19;;;;;;;2.58;0.70;;;12.50;99.90;;;;;;5009025;28;20045;-78
2022/11/04 12:53:11;;;;;;;11.18;6.45;;;12.50;99.90;;;;;;5000943;28;20048;-78
2022/11/04 12:55:46;;;;;;;3.17;1.13;;;12.60;99.90;;;;;;5025258;28;20034;-79
2022/11/04 12:58:27;;;;;;;2.75;1.58;;;12.70;99.90;;;;;;5004699;28;20038;-77
2022/11/04 13:01:02;;;;;;;1.90;0.68;;;12.80;99.90;;;;;;5021214;28;20042;-77
2022/11/04 13:03:42;;;;;;;8.63;1.05;;;12.60;99.90;;;;;;5014762;28;20034;-77
2022/11/04 13:06:17;;;;;;;4.13;1.17;;;12.60;99.90;;;;;;5020765;28;20046;-77
2022/11/04 13:09:08;;;;;;;4.28;1.15;;;12.60;99.90;;;;;;4996717;28;20036;-81
2022/11/04 13:11:51;;;;;;;4.38;0.75;;;12.70;99.90;;;;;;5024574;28;20030;-79
2022/11/04 13:14:28;;;;;;;1.75;0.80;;;12.80;99.90;;;;;;5033925;28;20049;-77
2022/11/04 13:17:06;;;;;;;5.13;1.00;;;12.50;99.90;;;;;;5020531;28;20042;-77
2022/11/04 13:19:53;;;;;;;3.83;1.20;;;12.70;99.90;;;;;;4988410;28;20054;-78
2022/11/04 13:22:24;;;;;;;5.30;0.93;;;13.00;99.90;;;;;;5017177;28;20030;-77
2022/11/04 13:25:03;;;;;;;6.55;1.02;;;12.70;99.90;;;;;;5030001;28;20046;-78
2022/11/04 13:27:44;;;;;;;4.60;1.15;;;12.80;99.90;;;;;;5033272;28;20044;-78
2022/11/04 13:30:21;;;;;;;;;;;13.00;98.10;;;;;;5017980;28;20058;-78
2022/11/04 13:32:56;;;;;;;2.28;0.82;;;13.00;98.20;;;;;;5004000;28;19917;-78
2022/11/04 13:35:32;;;;;;;5.97;1.70;;;13.00;97.80;;;;;;5013897;28;20494;-78
2022/11/04 13:38:11;;;;;;;7.88;1.15;;;12.90;97.00;;;;;;5013757;28;20042;-78
2022/11/04 13:40:52;;;;;;;5.22;1.15;;;13.00;97.80;;;;;;5015476;28;20037;-78
2022/11/04 13:43:37;;;;;;;5.10;1.00;;;13.10;98.00;;;;;;5014034;28;20033;-78
2022/11/04 13:46:32;;;;;;;3.42;0.90;;;13.20;95.30;;;;;;5003481;28;20049;-79
2022/11/04 13:49:09;;;;;;;3.28;0.90;;;13.10;92.60;;;;;;5011411;28;20044;-77
2022/11/04 13:51:43;;;;;;;2.58;0.70;;;13.10;95.40;;;;;;5038513;28;20036;-84